Time;durP1;ratioP1;P1;durP2;ratioP2;P2;SDS_P1;SDS_P2;PMS_P1;PMS_P2;Temp;Humidity;BMP_temperature;BMP_pressure;BME280_temperature;BME280_humidity;BME280_pressure;Samples;Min_cycle;Max_cycle;Signal;HPM_P1;HPM_P2
2021/10/24 00:01:48;;;;;;;2.83;1.70;;;;;;;14.74;51.24;102532.16;5033269;28;20103;-60
2021/10/24 00:04:14;;;;;;;4.65;1.83;;;;;;;14.72;51.17;102530.50;5033056;28;20053;-59
2021/10/24 00:06:41;;;;;;;3.25;1.65;;;;;;;14.67;51.02;102536.81;5033114;28;20049;-59
2021/10/24 00:09:08;;;;;;;3.25;1.50;;;;;;;14.66;51.27;102534.25;5033311;28;20099;-59
2021/10/24 00:11:36;;;;;;;3.67;1.63;;;;;;;14.64;50.94;102533.44;5033062;28;20512;-59
2021/10/24 00:14:05;;;;;;;2.13;1.35;;;;;;;14.63;51.06;102537.03;5033250;28;20049;-60
2021/10/24 00:16:32;;;;;;;2.42;1.42;;;;;;;14.61;50.92;102536.22;5032546;28;20049;-60
2021/10/24 00:18:59;;;;;;;3.83;1.80;;;;;;;14.62;50.52;102535.31;5032978;28;20128;-60
2021/10/24 00:21:26;;;;;;;2.70;1.50;;;;;;;14.59;50.32;102538.94;5032937;28;20045;-60
2021/10/24 00:23:52;;;;;;;2.33;1.33;;;;;;;14.60;50.45;102539.78;5032889;28;20046;-60
2021/10/24 00:26:19;;;;;;;3.63;1.73;;;;;;;14.60;50.32;102539.78;5032971;28;20160;-61
2021/10/24 00:28:46;;;;;;;4.38;1.50;;;;;;;14.58;50.11;102537.22;5032782;28;20057;-59
2021/10/24 00:31:12;;;;;;;3.03;1.33;;;;;;;14.54;50.09;102533.00;5032841;28;20045;-59
2021/10/24 00:33:39;;;;;;;6.75;1.50;;;;;;;14.53;50.10;102532.13;5031439;28;20500;-59
2021/10/24 00:36:19;;;;;;;2.67;1.40;;;;;;;14.49;50.29;102532.34;5032860;28;20053;-59
2021/10/24 00:38:45;;;;;;;1.90;1.10;;;;;;;14.46;50.21;102529.84;5032508;28;20079;-59
2021/10/24 00:41:12;;;;;;;2.72;1.33;;;;;;;14.43;49.93;102529.97;5032639;28;20050;-61
2021/10/24 00:43:39;;;;;;;2.85;1.27;;;;;;;14.40;49.88;102528.34;5032603;28;20048;-59
2021/10/24 00:46:05;;;;;;;2.20;1.00;;;;;;;14.38;49.90;102519.59;5032593;28;20049;-59
2021/10/24 00:48:52;;;;;;;5.00;1.20;;;;;;;14.35;49.71;102527.69;5032475;28;20069;-59
2021/10/24 00:51:19;;;;;;;2.08;1.30;;;;;;;14.35;49.76;102523.25;5032133;28;20049;-59
2021/10/24 00:53:46;;;;;;;2.03;1.27;;;;;;;14.35;49.56;102527.69;5032446;28;20054;-60
2021/10/24 00:56:13;;;;;;;2.50;1.20;;;;;;;14.35;49.33;102522.41;5032538;28;20053;-59
2021/10/24 00:58:40;;;;;;;2.10;1.30;;;;;;;14.34;49.54;102520.69;5032151;28;20049;-59
2021/10/24 01:01:07;;;;;;;3.45;1.40;;;;;;;14.33;48.98;102519.81;5032529;28;20103;-60
2021/10/24 01:03:37;;;;;;;2.33;1.10;;;;;;;14.35;48.95;102536.44;5031947;28;20512;-59
2021/10/24 01:06:04;;;;;;;1.73;1.00;;;;;;;14.34;49.24;102531.25;5031933;28;20137;-60
2021/10/24 01:08:35;;;;;;;2.33;1.45;;;;;;;14.35;48.87;102528.53;5032225;28;20056;-59
2021/10/24 01:11:03;;;;;;;3.65;1.42;;;;;;;14.35;48.97;102533.81;5032382;28;20053;-59
2021/10/24 01:13:32;;;;;;;4.30;1.48;;;;;;;14.37;48.88;102531.09;5032359;28;20045;-63
2021/10/24 01:16:13;;;;;;;1.65;1.08;;;;;;;14.34;48.63;102525.97;5032230;28;20081;-60
2021/10/24 01:18:41;;;;;;;4.07;1.92;;;;;;;14.34;48.92;102532.09;5032205;28;20417;-59
2021/10/24 01:21:08;;;;;;;5.15;1.40;;;;;;;14.34;48.82;102528.59;5032309;28;20046;-60
2021/10/24 01:23:35;;;;;;;2.85;1.40;;;;;;;14.31;48.67;102526.06;5031630;28;20041;-60
2021/10/24 01:26:04;;;;;;;2.45;1.10;;;;;;;14.31;48.67;102521.66;5032060;28;20059;-60
2021/10/24 01:28:32;;;;;;;3.40;1.10;;;;;;;14.31;48.70;102524.31;5031936;28;20121;-60
2021/10/24 01:30:59;;;;;;;2.15;1.35;;;;;;;14.28;48.56;102526.22;5032211;28;20046;-62
2021/10/24 01:33:27;;;;;;;2.13;1.10;;;;;;;14.27;48.65;102525.38;5032219;28;20387;-59
2021/10/24 01:35:59;;;;;;;2.03;0.90;;;;;;;14.24;48.41;102522.00;5032171;28;20050;-59
2021/10/24 01:38:27;;;;;;;3.58;1.13;;;;;;;14.26;48.47;102520.13;5031551;28;20045;-59
2021/10/24 01:40:55;;;;;;;3.03;1.17;;;;;;;14.25;48.06;102516.66;5032085;28;20115;-60
2021/10/24 01:43:23;;;;;;;2.90;1.30;;;;;;;14.28;48.04;102513.03;5032122;28;20045;-60
2021/10/24 01:45:50;;;;;;;3.00;1.20;;;;;;;14.28;48.25;102510.38;5031893;28;20108;-60
2021/10/24 01:48:17;;;;;;;2.17;1.33;;;;;;;14.28;47.77;102515.66;5031875;28;20136;-60
2021/10/24 01:50:45;;;;;;;2.15;1.13;;;;;;;14.26;48.06;102513.09;5031926;28;20118;-62
2021/10/24 01:53:16;;;;;;;2.13;1.40;;;;;;;14.26;48.12;102510.44;5031935;28;20045;-59
2021/10/24 01:55:42;;;;;;;2.33;1.00;;;;;;;14.23;48.54;102513.22;5012115;28;20494;-59
2021/10/24 01:58:09;;;;;;;2.30;1.20;;;;;;;14.21;48.32;102509.81;5012153;28;20394;-59
2021/10/24 02:00:36;;;;;;;2.45;1.05;;;;;;;14.21;48.66;102509.81;5012246;28;20050;-59
2021/10/24 02:03:03;;;;;;;1.83;1.10;;;;;;;14.14;48.81;102509.19;5012231;28;20061;-59
2021/10/24 02:05:30;;;;;;;2.05;1.20;;;;;;;14.13;48.77;102511.91;5012166;28;20050;-60
2021/10/24 02:07:56;;;;;;;3.60;1.27;;;;;;;14.13;48.92;102504.84;5011947;28;20050;-63
2021/10/24 02:10:23;;;;;;;2.20;1.30;;;;;;;14.09;48.96;102503.25;5016396;28;20049;-60
2021/10/24 02:12:50;;;;;;;2.40;1.10;;;;;;;14.09;48.78;102497.97;5035383;28;20049;-60
2021/10/24 02:15:16;;;;;;;3.30;0.90;;;;;;;14.05;48.69;102488.47;5035276;28;20049;-59
2021/10/24 02:17:43;;;;;;;2.17;1.15;;;;;;;14.03;49.10;102492.97;5035320;28;20045;-59
2021/10/24 02:20:10;;;;;;;1.88;1.20;;;;;;;14.01;48.89;102486.91;5035297;28;20049;-63
2021/10/24 02:22:37;;;;;;;2.70;1.15;;;;;;;13.98;49.20;102485.25;5035158;28;20956;-63
2021/10/24 02:25:05;;;;;;;3.22;1.15;;;;;;;13.99;49.11;102488.75;5035225;28;20111;-60
2021/10/24 02:27:32;;;;;;;2.83;1.20;;;;;;;13.97;49.21;102483.53;5034397;28;20099;-59
2021/10/24 02:29:58;;;;;;;1.52;1.20;;;;;;;13.97;49.00;102480.88;5034983;28;20489;-60
2021/10/24 02:32:25;;;;;;;1.45;1.00;;;;;;;13.94;48.98;102486.31;5035027;28;20049;-60
2021/10/24 02:34:52;;;;;;;3.22;1.10;;;;;;;13.91;49.20;102478.50;5034917;28;20046;-60
2021/10/24 02:37:18;;;;;;;1.02;0.82;;;;;;;13.94;49.21;102482.81;5034991;28;20046;-61
2021/10/24 02:39:45;;;;;;;2.15;1.00;;;;;;;13.94;49.22;102488.09;5034742;28;20045;-58
2021/10/24 02:42:12;;;;;;;1.50;1.20;;;;;;;13.94;49.66;102480.16;5034960;28;20091;-59
2021/10/24 02:44:38;;;;;;;2.67;1.25;;;;;;;13.92;49.51;102480.22;5034220;28;20647;-59
2021/10/24 02:47:05;;;;;;;1.80;1.33;;;;;;;13.93;49.71;102481.06;5034790;28;20076;-60
2021/10/24 02:49:32;;;;;;;2.28;1.35;;;;;;;13.91;49.89;102481.16;5034503;28;20042;-60
2021/10/24 02:51:58;;;;;;;2.10;1.17;;;;;;;13.88;50.03;102476.88;5034983;28;20049;-62
2021/10/24 02:54:26;;;;;;;3.22;1.27;;;;;;;13.87;49.92;102484.84;5034771;28;20045;-61
2021/10/24 02:56:53;;;;;;;3.05;1.88;;;;;;;13.83;50.09;102475.34;5034412;28;20482;-59
2021/10/24 02:59:20;;;;;;;4.00;1.80;;;;;;;13.80;50.44;102480.75;5034332;28;20045;-60
2021/10/24 03:01:48;;;;;;;3.92;1.60;;;;;;;13.79;50.70;102476.38;5033903;28;20049;-59
2021/10/24 03:04:15;;;;;;;3.92;1.83;;;;;;;13.75;50.69;102467.78;5029458;28;20541;-59
2021/10/24 03:06:42;;;;;;;5.38;2.20;;;;;;;13.75;50.95;102466.91;5031449;28;20132;-60
2021/10/24 03:09:08;;;;;;;3.45;1.60;;;;;;;13.70;51.10;102473.22;5030938;28;20048;-60
2021/10/24 03:11:35;;;;;;;4.57;1.88;;;;;;;13.65;51.31;102469.94;5030864;28;20049;-64
2021/10/24 03:14:04;;;;;;;3.00;1.80;;;;;;;13.65;51.56;102463.78;5031105;28;20054;-63
2021/10/24 03:16:31;;;;;;;2.40;1.60;;;;;;;13.67;51.65;102467.22;5030331;28;20045;-60
2021/10/24 03:18:58;;;;;;;3.38;1.23;;;;;;;13.67;51.83;102457.50;5031137;28;20041;-59
2021/10/24 03:21:25;;;;;;;2.40;1.52;;;;;;;13.68;51.64;102461.03;5030755;28;20049;-59
2021/10/24 03:23:51;;;;;;;2.35;1.30;;;;;;;13.65;51.65;102461.13;5030581;28;20564;-59
2021/10/24 03:26:18;;;;;;;3.42;1.23;;;;;;;13.65;51.63;102459.38;5030947;28;20096;-59
2021/10/24 03:28:45;;;;;;;3.63;1.60;;;;;;;13.65;51.57;102464.66;5030992;28;20053;-59
2021/10/24 03:31:12;;;;;;;3.35;1.60;;;;;;;13.64;51.69;102468.22;5030221;28;20045;-59
2021/10/24 03:33:38;;;;;;;2.20;1.40;;;;;;;13.61;51.82;102464.84;5030283;28;20511;-59
2021/10/24 03:36:05;;;;;;;3.08;1.38;;;;;;;13.55;51.80;102466.81;5030469;28;20049;-59
2021/10/24 03:38:32;;;;;;;2.67;1.30;;;;;;;13.52;51.96;102474.88;5030172;28;20099;-59
2021/10/24 03:40:59;;;;;;;2.42;1.10;;;;;;;13.49;52.18;102468.84;5030826;28;20176;-59
2021/10/24 03:43:26;;;;;;;3.15;1.80;;;;;;;13.46;52.22;102476.88;5030554;28;20049;-59
2021/10/24 03:45:53;;;;;;;2.00;1.23;;;;;;;13.41;52.14;102470.94;5030401;28;20053;-60
2021/10/24 03:48:20;;;;;;;1.92;1.25;;;;;;;13.37;52.33;102476.34;5029870;28;20053;-59
2021/10/24 03:50:47;;;;;;;3.30;1.40;;;;;;;13.35;52.41;102486.03;5030391;28;20046;-59
2021/10/24 03:53:14;;;;;;;2.45;1.25;;;;;;;13.35;52.35;102482.56;5030233;28;20551;-59
2021/10/24 03:55:41;;;;;;;4.35;1.38;;;;;;;13.33;52.41;102480.00;5030242;28;20053;-61
2021/10/24 03:58:08;;;;;;;1.98;1.38;;;;;;;13.29;52.68;102486.28;5029902;28;20049;-59
2021/10/24 04:00:34;;;;;;;2.40;1.38;;;;;;;13.30;52.70;102487.16;5030033;28;20448;-61
2021/10/24 04:03:05;;;;;;;2.47;1.70;;;;;;;13.30;52.80;102488.00;5029935;28;20077;-60
2021/10/24 04:05:33;;;;;;;3.90;1.40;;;;;;;13.32;52.67;102485.31;5029465;28;20053;-59
2021/10/24 04:08:00;;;;;;;2.00;1.35;;;;;;;13.34;52.46;102489.59;5030127;28;20460;-60
2021/10/24 04:10:28;;;;;;;3.78;1.45;;;;;;;13.35;52.53;102480.78;5029748;28;20049;-59
2021/10/24 04:12:55;;;;;;;3.58;1.30;;;;;;;13.39;52.22;102487.69;5029631;28;20072;-60
2021/10/24 04:15:23;;;;;;;1.75;1.23;;;;;;;13.42;52.33;102483.19;5029665;28;20115;-60
2021/10/24 04:17:50;;;;;;;3.28;1.42;;;;;;;13.45;51.98;102485.72;5029477;28;20053;-63
2021/10/24 04:20:19;;;;;;;4.60;1.40;;;;;;;13.47;51.74;102491.78;5029274;28;20046;-59
2021/10/24 04:22:47;;;;;;;2.20;1.40;;;;;;;13.49;51.86;102488.16;5029613;28;20053;-60
2021/10/24 04:25:14;;;;;;;3.33;1.83;;;;;;;13.50;51.41;102481.97;5029433;28;20080;-60
2021/10/24 04:27:41;;;;;;;2.47;1.25;;;;;;;13.50;51.59;102484.59;5029424;28;20525;-59
2021/10/24 04:30:10;;;;;;;2.92;1.70;;;;;;;13.53;51.42;102483.63;5029437;28;20041;-59
2021/10/24 04:32:39;;;;;;;2.35;1.15;;;;;;;13.53;51.50;102487.13;5029339;28;20049;-58
2021/10/24 04:35:07;;;;;;;4.75;1.20;;;;;;;13.53;50.95;102484.50;5028922;28;20095;-59
2021/10/24 04:37:33;;;;;;;2.13;1.17;;;;;;;13.55;51.09;102484.44;5028719;28;20116;-59
2021/10/24 04:40:00;;;;;;;4.00;1.20;;;;;;;13.57;51.03;102484.34;5029479;28;20058;-59
2021/10/24 04:42:27;;;;;;;1.73;1.10;;;;;;;13.57;50.98;102484.34;5029308;28;20068;-59
2021/10/24 04:44:55;;;;;;;2.63;0.90;;;;;;;13.54;50.79;102483.56;5029388;28;20041;-63
2021/10/24 04:47:22;;;;;;;2.50;1.00;;;;;;;13.54;50.73;102486.19;5029422;28;20053;-63
2021/10/24 04:49:49;;;;;;;2.50;1.60;;;;;;;13.51;50.96;102485.44;5029195;28;20057;-60
2021/10/24 04:52:16;;;;;;;2.95;1.25;;;;;;;13.48;51.05;102490.88;5029430;28;20414;-59
2021/10/24 04:54:43;;;;;;;4.47;1.13;;;;;;;13.51;50.86;102488.09;5028595;28;20445;-59
2021/10/24 04:57:09;;;;;;;1.83;1.08;;;;;;;13.48;50.98;102489.06;5029045;28;20045;-59
2021/10/24 04:59:36;;;;;;;2.78;1.00;;;;;;;13.46;50.98;102480.38;5028911;28;20091;-59
2021/10/24 05:02:03;;;;;;;2.78;1.02;;;;;;;13.43;51.16;102491.03;5029266;28;20046;-60
2021/10/24 05:04:30;;;;;;;2.33;1.10;;;;;;;13.42;50.96;102484.06;5028907;28;20581;-59
2021/10/24 05:06:57;;;;;;;1.92;1.25;;;;;;;13.38;51.42;102480.69;5029043;28;20081;-59
2021/10/24 05:09:23;;;;;;;1.88;0.90;;;;;;;13.35;51.38;102479.94;5028827;28;20045;-60
2021/10/24 05:11:50;;;;;;;2.65;1.20;;;;;;;13.31;51.53;102484.47;5028629;28;20041;-61
2021/10/24 05:14:17;;;;;;;1.83;1.10;;;;;;;13.26;51.54;102481.16;5028791;28;20096;-62
2021/10/24 05:16:43;;;;;;;1.92;1.17;;;;;;;13.24;51.85;102482.97;5028664;28;20041;-60
2021/10/24 05:19:10;;;;;;;2.05;1.20;;;;;;;13.19;52.21;102480.56;5029092;28;20273;-59
2021/10/24 05:21:36;;;;;;;4.03;1.20;;;;;;;13.15;52.30;102480.72;5028972;28;20445;-59
2021/10/24 05:24:04;;;;;;;2.10;1.08;;;;;;;13.09;52.33;102487.09;5028979;28;20046;-59
2021/10/24 05:26:30;;;;;;;2.35;1.35;;;;;;;13.06;52.70;102482.81;5028322;28;20050;-60
2021/10/24 05:28:57;;;;;;;3.17;0.90;;;;;;;13.02;52.78;102488.25;5029047;28;20387;-60
2021/10/24 05:31:24;;;;;;;3.05;1.67;;;;;;;12.99;53.00;102493.63;5029011;28;20073;-60
2021/10/24 05:34:10;;;;;;;1.70;0.80;;;;;;;12.95;53.03;102495.56;5028919;28;20053;-59
2021/10/24 05:36:39;;;;;;;2.53;1.35;;;;;;;12.94;52.97;102495.59;5028303;28;20048;-60
2021/10/24 05:39:06;;;;;;;1.73;1.23;;;;;;;12.90;53.03;102502.78;5028639;28;20319;-64
2021/10/24 05:41:33;;;;;;;2.17;1.27;;;;;;;12.88;53.35;102504.59;5028552;28;20050;-60
2021/10/24 05:43:59;;;;;;;2.45;1.35;;;;;;;12.86;53.21;102502.03;5028247;28;20045;-60
2021/10/24 05:46:26;;;;;;;1.80;1.08;;;;;;;12.84;53.29;102506.50;5030591;28;20050;-60
2021/10/24 05:48:53;;;;;;;2.03;1.10;;;;;;;12.85;52.88;102502.94;5032409;28;20468;-60
2021/10/24 05:51:20;;;;;;;3.03;1.20;;;;;;;12.84;52.93;102498.59;5032671;28;20075;-59
2021/10/24 05:53:47;;;;;;;2.13;1.20;;;;;;;12.87;53.33;102510.78;5032175;28;20072;-60
2021/10/24 05:56:13;;;;;;;2.17;1.23;;;;;;;12.87;52.87;102509.03;5032332;28;20481;-59
2021/10/24 05:58:40;;;;;;;3.50;1.58;;;;;;;12.88;52.87;102509.88;5032050;28;20053;-59
2021/10/24 06:01:07;;;;;;;2.85;1.77;;;;;;;12.89;52.72;102516.84;5031748;28;20092;-60
2021/10/24 06:03:34;;;;;;;2.17;1.52;;;;;;;12.91;52.33;102517.66;5032097;28;20050;-59
2021/10/24 06:06:01;;;;;;;4.45;1.60;;;;;;;12.92;52.14;102521.16;5032763;28;20046;-60
2021/10/24 06:08:27;;;;;;;7.65;1.63;;;;;;;12.94;52.12;102525.44;5032068;28;20049;-60
2021/10/24 06:11:02;;;;;;;3.13;1.40;;;;;;;12.95;52.00;102524.53;5032008;28;20049;-59
2021/10/24 06:13:29;;;;;;;3.22;2.20;;;;;;;13.00;51.80;102524.34;5032539;28;20452;-60
2021/10/24 06:15:56;;;;;;;3.83;1.65;;;;;;;13.00;51.70;102526.97;5031735;28;20123;-60
2021/10/24 06:18:22;;;;;;;4.15;1.92;;;;;;;13.02;51.55;102531.28;5031834;28;20057;-60
2021/10/24 06:20:49;;;;;;;3.42;1.90;;;;;;;13.03;51.68;102534.78;5031879;28;20456;-59
2021/10/24 06:23:15;;;;;;;3.00;1.70;;;;;;;13.03;51.42;102534.78;5032007;28;20057;-59
2021/10/24 06:25:42;;;;;;;3.95;1.80;;;;;;;13.04;51.33;102549.69;5031924;28;20041;-60
2021/10/24 06:28:13;;;;;;;3.42;1.88;;;;;;;13.05;51.35;102548.75;5031803;28;20100;-60
2021/10/24 06:30:40;;;;;;;5.22;1.90;;;;;;;13.07;51.63;102546.91;5031604;28;20045;-60
2021/10/24 06:33:06;;;;;;;4.40;1.83;;;;;;;13.10;51.38;102551.22;5031869;28;20046;-61
2021/10/24 06:35:34;;;;;;;7.53;1.75;;;;;;;13.09;51.73;102558.28;5031111;28;20053;-60
2021/10/24 06:38:00;;;;;;;4.30;1.80;;;;;;;13.11;51.86;102564.31;5031845;28;20501;-60
2021/10/24 06:40:27;;;;;;;5.30;1.98;;;;;;;13.14;51.79;102552.81;5031632;28;20395;-60
2021/10/24 06:42:53;;;;;;;2.33;1.50;;;;;;;13.19;51.74;102561.41;5031536;28;20107;-60
2021/10/24 06:45:20;;;;;;;3.80;1.77;;;;;;;13.22;51.87;102563.94;5031537;28;20414;-60
2021/10/24 06:47:51;;;;;;;4.68;1.45;;;;;;;13.28;52.18;102566.34;5031513;28;20479;-59
2021/10/24 06:50:18;;;;;;;3.03;1.42;;;;;;;13.35;51.90;102565.16;5030823;28;20049;-60
2021/10/24 06:52:44;;;;;;;2.47;1.40;;;;;;;13.42;52.06;102565.81;5031501;28;20539;-60
2021/10/24 06:55:11;;;;;;;3.25;1.80;;;;;;;13.56;51.79;102573.19;5031515;28;20456;-60
2021/10/24 06:57:52;;;;;;;4.60;1.70;;;;;;;13.71;51.58;102566.41;5030541;28;20046;-61
2021/10/24 07:00:21;;;;;;;4.78;1.77;;;;;;;13.95;50.90;102567.19;5031159;28;20497;-60
2021/10/24 07:02:48;;;;;;;3.00;1.60;;;;;;;14.20;50.72;102571.44;5030885;28;20068;-63
2021/10/24 07:05:16;;;;;;;3.53;1.75;;;;;;;14.46;50.14;102572.97;5031028;28;20055;-60
2021/10/24 07:07:43;;;;;;;3.08;1.48;;;;;;;14.68;49.38;102570.25;5030701;28;20045;-60
2021/10/24 07:10:11;;;;;;;2.60;1.50;;;;;;;14.88;48.70;102572.94;5031085;28;20091;-61
2021/10/24 07:12:39;;;;;;;4.30;1.40;;;;;;;15.01;48.26;102579.38;5031001;28;20045;-60
2021/10/24 07:15:07;;;;;;;2.47;1.25;;;;;;;15.19;47.73;102577.66;5031048;28;20111;-60
2021/10/24 07:17:35;;;;;;;1.83;1.13;;;;;;;15.32;46.88;102578.78;5030566;28;20075;-60
2021/10/24 07:20:03;;;;;;;5.35;1.00;;;;;;;15.42;46.27;102586.31;5031177;28;20119;-60
2021/10/24 07:22:30;;;;;;;3.88;1.13;;;;;;;15.51;46.19;102586.72;5030589;28;20041;-60
2021/10/24 07:24:57;;;;;;;2.95;1.15;;;;;;;15.59;45.50;102578.41;5030819;28;20072;-59
2021/10/24 07:27:23;;;;;;;2.45;1.00;;;;;;;15.75;44.40;102577.66;5030878;28;20042;-60
2021/10/24 07:29:50;;;;;;;1.50;0.80;;;;;;;15.86;44.42;102577.16;5030557;28;20057;-61
2021/10/24 07:32:17;;;;;;;1.83;1.02;;;;;;;15.91;44.27;102575.13;5030598;28;20503;-61
2021/10/24 07:34:43;;;;;;;3.63;1.20;;;;;;;16.09;43.63;102584.81;5030366;28;20111;-60
2021/10/24 07:37:10;;;;;;;4.82;1.40;;;;;;;16.18;42.77;102588.78;5030330;28;20547;-61
2021/10/24 07:39:36;;;;;;;3.03;1.70;;;;;;;16.26;42.98;102596.34;5028864;28;20053;-59
2021/10/24 07:42:03;;;;;;;3.03;1.50;;;;;;;16.47;42.70;102591.72;5030016;28;20041;-60
2021/10/24 07:44:31;;;;;;;2.95;0.90;;;;;;;16.61;41.81;102598.97;5029626;28;20540;-60
2021/10/24 07:46:57;;;;;;;2.50;1.05;;;;;;;16.72;41.78;102601.91;5027188;28;20041;-60
2021/10/24 07:49:25;;;;;;;2.80;0.90;;;;;;;16.83;41.12;102606.63;5027611;28;20493;-60
2021/10/24 07:51:51;;;;;;;3.55;1.13;;;;;;;16.99;41.17;102604.03;5029426;28;20042;-61
2021/10/24 07:54:18;;;;;;;3.42;1.13;;;;;;;17.07;41.13;102608.94;5029531;28;20042;-60
2021/10/24 07:56:45;;;;;;;3.53;1.02;;;;;;;17.10;40.47;102603.44;5028746;28;20049;-60
2021/10/24 07:59:12;;;;;;;3.63;1.10;;;;;;;17.23;40.04;102606.28;5029284;28;20049;-60
2021/10/24 08:01:39;;;;;;;2.55;1.20;;;;;;;17.40;40.17;102602.72;5029588;28;20122;-60
2021/10/24 08:04:07;;;;;;;1.80;1.02;;;;;;;17.55;39.93;102607.16;5029369;28;20404;-60
2021/10/24 08:06:35;;;;;;;2.05;1.05;;;;;;;17.65;39.16;102607.50;5029115;28;20045;-60
2021/10/24 08:09:07;;;;;;;3.83;0.98;;;;;;;17.73;39.12;102607.88;5029034;28;20468;-60
2021/10/24 08:11:34;;;;;;;3.78;2.08;;;;;;;17.79;39.05;102615.50;5028970;28;20080;-60
2021/10/24 08:14:02;;;;;;;2.08;1.13;;;;;;;17.95;38.33;102612.00;5028489;28;20095;-60
2021/10/24 08:16:30;;;;;;;1.77;1.00;;;;;;;18.08;38.12;102612.13;5028910;28;20478;-61
2021/10/24 08:18:56;;;;;;;1.67;1.23;;;;;;;18.14;38.16;102610.94;5028374;28;20045;-60
2021/10/24 08:21:23;;;;;;;2.65;0.70;;;;;;;18.18;37.93;102607.13;5028618;28;20068;-60
2021/10/24 08:23:50;;;;;;;2.50;1.17;;;;;;;18.32;37.56;102601.88;5028689;28;20091;-60
2021/10/24 08:26:17;;;;;;;1.90;0.80;;;;;;;18.42;37.46;102612.78;5028149;28;20045;-59
2021/10/24 08:28:47;;;;;;;2.00;0.85;;;;;;;18.47;36.98;102620.50;5028496;28;20449;-59
2021/10/24 08:31:16;;;;;;;3.10;0.90;;;;;;;18.63;36.58;102607.09;5028205;28;20516;-60
2021/10/24 08:33:44;;;;;;;1.95;0.80;;;;;;;18.79;36.22;102610.53;5026372;28;20042;-61
2021/10/24 08:36:10;;;;;;;3.42;1.40;;;;;;;18.87;36.18;102615.41;5028572;28;20486;-60
2021/10/24 08:38:37;;;;;;;3.63;1.02;;;;;;;18.96;35.66;102616.66;5028926;28;20103;-60
2021/10/24 08:41:05;;;;;;;2.40;0.98;;;;;;;19.13;35.54;102620.94;5029095;28;20414;-60
2021/10/24 08:43:35;;;;;;;4.03;1.00;;;;;;;19.27;35.12;102620.88;5028734;28;20486;-60
2021/10/24 08:46:04;;;;;;;2.08;0.80;;;;;;;19.48;34.55;102615.16;5027912;28;20139;-60
2021/10/24 08:48:34;;;;;;;1.35;0.90;;;;;;;19.58;34.66;102611.78;5025883;28;20041;-60
2021/10/24 08:51:02;;;;;;;2.97;0.80;;;;;;;19.72;34.44;102613.53;5028888;28;20045;-59
2021/10/24 08:53:30;;;;;;;1.75;0.88;;;;;;;19.86;33.88;102610.00;5028915;28;20045;-65
2021/10/24 08:55:57;;;;;;;3.50;1.30;;;;;;;20.00;33.58;102601.09;5028781;28;20081;-60
2021/10/24 08:58:24;;;;;;;2.47;1.00;;;;;;;20.10;33.59;102612.00;5028615;28;20045;-61
2021/10/24 09:00:52;;;;;;;4.18;1.25;;;;;;;20.21;33.25;102617.44;5028323;28;20053;-64
2021/10/24 09:03:19;;;;;;;3.50;1.00;;;;;;;20.31;32.97;102617.66;5026155;28;20057;-60
2021/10/24 09:05:47;;;;;;;3.55;1.00;;;;;;;20.47;32.72;102608.63;5028019;28;20046;-60
2021/10/24 09:08:17;;;;;;;2.85;0.95;;;;;;;20.55;32.61;102601.78;5028175;28;20072;-60
2021/10/24 09:10:49;;;;;;;2.30;1.17;;;;;;;20.74;32.04;102608.53;5027707;28;20037;-60
2021/10/24 09:13:17;;;;;;;2.92;1.65;;;;;;;20.91;31.92;102604.66;5027868;28;20541;-60
2021/10/24 09:15:51;;;;;;;1.80;1.10;;;;;;;21.11;31.46;102597.88;5027931;28;20049;-60
2021/10/24 09:18:21;;;;;;;3.03;1.25;;;;;;;21.26;31.21;102597.75;5027992;28;20045;-59
2021/10/24 09:20:51;;;;;;;2.67;1.35;;;;;;;21.36;30.97;102599.63;5028999;28;20053;-66
2021/10/24 09:23:18;;;;;;;1.13;0.80;;;;;;;21.45;31.01;102605.28;5032775;28;20486;-66
2021/10/24 09:25:53;;;;;;;3.83;0.98;;;;;;;21.59;30.42;102604.28;5032294;28;20038;-60
2021/10/24 09:28:22;;;;;;;2.58;1.00;;;;;;;21.67;30.64;102605.44;5032293;28;20409;-61
2021/10/24 09:30:58;;;;;;;2.00;1.10;;;;;;;21.82;30.34;102598.06;5032321;28;20049;-60
2021/10/24 09:33:26;;;;;;;2.72;1.20;;;;;;;21.96;30.10;102597.00;5030706;28;20489;-66
2021/10/24 09:35:53;;;;;;;2.22;1.20;;;;;;;22.06;29.79;102607.88;5032071;28;20482;-60
2021/10/24 09:38:22;;;;;;;2.75;1.08;;;;;;;22.18;29.79;102604.25;5031547;28;20111;-61
2021/10/24 09:40:55;;;;;;;1.75;1.10;;;;;;;22.30;29.20;102602.47;5032463;28;20456;-60
2021/10/24 09:43:26;;;;;;;4.15;1.65;;;;;;;22.37;29.44;102604.69;5031947;28;20045;-60
2021/10/24 09:45:58;;;;;;;3.78;2.00;;;;;;;22.48;29.14;102605.56;5032278;28;20045;-60
2021/10/24 09:48:30;;;;;;;2.80;1.48;;;;;;;22.60;29.32;102597.53;5032444;28;20053;-59
2021/10/24 09:51:11;;;;;;;4.45;1.50;;;;;;;22.72;28.98;102603.75;5032660;28;20050;-60
2021/10/24 09:53:40;;;;;;;2.85;1.50;;;;;;;22.80;28.96;102604.88;5030976;28;20520;-60
2021/10/24 09:56:11;;;;;;;3.60;1.23;;;;;;;22.91;28.77;102593.28;5029855;28;20050;-60
2021/10/24 09:58:44;;;;;;;2.63;1.20;;;;;;;23.02;28.70;102596.91;5031970;28;20463;-60
2021/10/24 10:01:13;;;;;;;2.50;1.10;;;;;;;23.07;28.47;102589.38;5032361;28;20111;-60
2021/10/24 10:03:41;;;;;;;3.47;1.15;;;;;;;23.15;28.46;102593.16;5031660;28;20060;-59
2021/10/24 10:06:14;;;;;;;4.65;2.60;;;;;;;23.26;28.41;102584.25;5032120;28;20052;-64
2021/10/24 10:08:44;;;;;;;2.70;1.40;;;;;;;23.35;28.01;102581.78;5031421;28;20107;-60
2021/10/24 10:11:21;;;;;;;2.65;1.50;;;;;;;23.40;27.91;102591.16;5032079;28;20041;-60
2021/10/24 10:13:56;;;;;;;6.13;1.45;;;;;;;23.54;27.71;102575.75;5031764;28;20045;-60
2021/10/24 10:16:51;;;;;;;3.42;1.90;;;;;;;23.62;27.69;102576.81;5032562;28;20115;-61
2021/10/24 10:19:34;;;;;;;2.58;1.60;;;;;;;23.71;27.60;102577.03;5031567;28;20049;-60
2021/10/24 10:22:19;;;;;;;2.55;1.40;;;;;;;23.80;27.54;102577.09;5031992;28;20540;-60
2021/10/24 10:24:46;;;;;;;2.75;1.50;;;;;;;23.77;27.72;102581.91;5031217;28;20100;-60
2021/10/24 10:27:32;;;;;;;3.25;1.20;;;;;;;23.85;27.32;102578.56;5031167;28;20096;-60
2021/10/24 10:30:03;;;;;;;3.28;1.20;;;;;;;23.84;27.37;102575.00;5029279;28;20103;-60
2021/10/24 10:32:46;;;;;;;2.80;1.63;;;;;;;23.92;27.38;102569.91;5029188;28;20046;-60
2021/10/24 10:35:18;;;;;;;3.10;1.63;;;;;;;23.94;27.40;102561.72;5029171;28;20068;-60
2021/10/24 10:37:48;;;;;;;2.95;1.50;;;;;;;23.95;27.39;102566.94;5030829;28;20077;-62
2021/10/24 10:40:17;;;;;;;7.07;5.00;;;;;;;24.02;27.33;102561.06;5030361;28;20045;-60
2021/10/24 10:42:45;;;;;;;3.88;3.00;;;;;;;24.06;27.41;102552.63;5029775;28;20045;-61
2021/10/24 10:45:14;;;;;;;3.25;1.67;;;;;;;24.13;27.50;102550.25;5029484;28;20091;-64
2021/10/24 10:47:48;;;;;;;3.15;1.48;;;;;;;24.13;27.51;102561.00;5030626;28;20049;-61
2021/10/24 10:50:39;;;;;;;2.72;1.80;;;;;;;24.12;27.19;102545.88;5030375;28;20449;-61
2021/10/24 10:53:08;;;;;;;2.95;1.50;;;;;;;24.10;27.37;102545.19;5025037;28;20045;-59
2021/10/24 10:55:57;;;;;;;5.47;1.73;;;;;;;24.02;27.31;102547.66;5030151;28;20041;-59
2021/10/24 10:58:32;;;;;;;3.88;1.58;;;;;;;24.02;27.37;102544.97;5024880;28;20049;-61
2021/10/24 11:01:00;;;;;;;3.33;1.60;;;;;;;24.06;27.23;102546.41;5030807;28;20103;-60
2021/10/24 11:03:49;;;;;;;3.63;1.33;;;;;;;24.12;27.01;102546.75;5030579;28;20057;-61
2021/10/24 11:06:25;;;;;;;3.97;1.52;;;;;;;24.19;27.13;102536.31;5030666;28;20151;-68
2021/10/24 11:08:54;;;;;;;5.40;1.80;;;;;;;24.20;27.71;102539.84;5030703;28;20060;-60
2021/10/24 11:14:13;;;;;;;8.63;2.00;;;;;;;24.18;28.67;102542.66;5030011;28;20087;-66
2021/10/24 11:17:06;;;;;;;;;;;;;;;24.11;28.74;102538.81;5030838;28;20486;-70
2021/10/24 11:19:37;;;;;;;7.32;1.58;;;;;;;24.19;28.84;102535.47;5029977;28;19943;-61
2021/10/24 11:22:16;;;;;;;5.55;1.67;;;;;;;24.24;28.73;102531.41;5030639;28;20053;-61
2021/10/24 11:24:52;;;;;;;3.78;1.30;;;;;;;24.36;28.42;102534.00;5030565;28;20124;-62
2021/10/24 11:27:29;;;;;;;2.22;1.23;;;;;;;24.38;28.13;102532.88;5030571;28;20049;-62
2021/10/24 11:29:57;;;;;;;2.60;1.15;;;;;;;24.40;27.51;102532.75;5029884;28;20123;-74
2021/10/24 11:32:35;;;;;;;2.00;1.05;;;;;;;24.45;27.17;102517.97;5026688;28;20049;-61
2021/10/24 11:35:13;;;;;;;3.30;1.30;;;;;;;24.58;27.00;102508.78;5030403;28;20635;-62